sensor_id;sensor_type;location;lat;lon;timestamp;pressure;altitude;pressure_sealevel;temperature;humidity
24045;BME280;26257;49.442;8.422;2022-09-21T00:02:10;101297.41;;;14.47;88.11
24045;BME280;26257;49.442;8.422;2022-09-21T00:04:36;101300.97;;;14.49;87.55
24045;BME280;26257;49.442;8.422;2022-09-21T00:07:01;101301.59;;;14.20;88.71
24045;BME280;26257;49.442;8.422;2022-09-21T00:09:27;101294.59;;;14.32;89.07
24045;BME280;26257;49.442;8.422;2022-09-21T00:11:52;101299.13;;;14.42;87.66
24045;BME280;26257;49.442;8.422;2022-09-21T00:14:18;101302.59;;;14.32;88.08
24045;BME280;26257;49.442;8.422;2022-09-21T00:16:43;101310.91;;;13.76;94.12
24045;BME280;26257;49.442;8.422;2022-09-21T00:19:09;101319.91;;;13.93;93.47
24045;BME280;26257;49.442;8.422;2022-09-21T00:21:35;101303.97;;;13.93;92.49
24045;BME280;26257;49.442;8.422;2022-09-21T00:24:02;101311.13;;;14.00;92.54
24045;BME280;26257;49.442;8.422;2022-09-21T00:26:29;101315.47;;;13.89;93.30
24045;BME280;26257;49.442;8.422;2022-09-21T00:28:59;101323.50;;;13.98;92.21
24045;BME280;26257;49.442;8.422;2022-09-21T00:31:26;101332.19;;;13.82;92.71
24045;BME280;26257;49.442;8.422;2022-09-21T00:33:53;101321.31;;;13.58;95.23
24045;BME280;26257;49.442;8.422;2022-09-21T00:36:21;101321.94;;;13.37;96.93
24045;BME280;26257;49.442;8.422;2022-09-21T00:38:52;101326.06;;;13.16;100.00
24045;BME280;26257;49.442;8.422;2022-09-21T00:41:18;101322.47;;;13.11;100.00
24045;BME280;26257;49.442;8.422;2022-09-21T00:43:47;101322.53;;;13.14;100.00
24045;BME280;26257;49.442;8.422;2022-09-21T00:46:26;101322.66;;;13.26;99.94
24045;BME280;26257;49.442;8.422;2022-09-21T00:48:53;101324.53;;;13.31;99.82
24045;BME280;26257;49.442;8.422;2022-09-21T00:51:19;101326.53;;;12.89;100.00
24045;BME280;26257;49.442;8.422;2022-09-21T00:53:45;101323.34;;;13.10;100.00
24045;BME280;26257;49.442;8.422;2022-09-21T00:56:13;101324.69;;;13.45;100.00
24045;BME280;26257;49.442;8.422;2022-09-21T00:58:43;101323.97;;;13.58;97.99
24045;BME280;26257;49.442;8.422;2022-09-21T01:01:11;101331.66;;;13.37;99.05
24045;BME280;26257;49.442;8.422;2022-09-21T01:03:39;101325.47;;;13.36;100.00
24045;BME280;26257;49.442;8.422;2022-09-21T01:06:04;101328.13;;;13.36;99.24
24045;BME280;26257;49.442;8.422;2022-09-21T01:08:30;101331.91;;;13.55;100.00
24045;BME280;26257;49.442;8.422;2022-09-21T01:30:25;101333.50;;;13.42;100.00
24045;BME280;26257;49.442;8.422;2022-09-21T01:33:04;101338.88;;;13.47;99.90
24045;BME280;26257;49.442;8.422;2022-09-21T01:35:36;101333.44;;;13.38;99.99
24045;BME280;26257;49.442;8.422;2022-09-21T01:38:09;101332.56;;;13.37;97.51
24045;BME280;26257;49.442;8.422;2022-09-21T01:40:45;101340.06;;;13.06;100.00
24045;BME280;26257;49.442;8.422;2022-09-21T01:43:19;101338.34;;;13.09;98.25
24045;BME280;26257;49.442;8.422;2022-09-21T01:45:49;101330.63;;;13.26;97.85
24045;BME280;26257;49.442;8.422;2022-09-21T01:48:17;101337.50;;;13.09;97.42
24045;BME280;26257;49.442;8.422;2022-09-21T01:50:48;101329.59;;;13.15;97.11
24045;BME280;26257;49.442;8.422;2022-09-21T01:53:21;101334.00;;;13.14;97.06
24045;BME280;26257;49.442;8.422;2022-09-21T01:55:54;101338.16;;;12.98;98.07
24045;BME280;26257;49.442;8.422;2022-09-21T01:58:32;101335.41;;;12.91;100.00
24045;BME280;26257;49.442;8.422;2022-09-21T02:01:00;101338.25;;;13.05;99.18
24045;BME280;26257;49.442;8.422;2022-09-21T02:03:35;101332.84;;;12.98;99.37
24045;BME280;26257;49.442;8.422;2022-09-21T02:06:02;101333.84;;;13.05;98.26
24045;BME280;26257;49.442;8.422;2022-09-21T02:08:30;101332.00;;;13.01;99.37
24045;BME280;26257;49.442;8.422;2022-09-21T02:11:03;101335.50;;;12.98;99.66
24045;BME280;26257;49.442;8.422;2022-09-21T02:13:35;101346.22;;;13.03;98.58
24045;BME280;26257;49.442;8.422;2022-09-21T02:19:25;101339.00;;;12.96;97.73
24045;BME280;26257;49.442;8.422;2022-09-21T02:22:13;101341.16;;;12.61;100.00
24045;BME280;26257;49.442;8.422;2022-09-21T02:24:42;101335.72;;;12.54;100.00
24045;BME280;26257;49.442;8.422;2022-09-21T02:32:37;101328.94;;;12.72;100.00
24045;BME280;26257;49.442;8.422;2022-09-21T02:43:14;101332.03;;;12.44;100.00
24045;BME280;26257;49.442;8.422;2022-09-21T02:45:50;101333.81;;;12.45;100.00
24045;BME280;26257;49.442;8.422;2022-09-21T03:08:51;101366.59;;;11.17;100.00
24045;BME280;26257;49.442;8.422;2022-09-21T03:11:17;101342.88;;;11.63;100.00
24045;BME280;26257;49.442;8.422;2022-09-21T03:13:43;101337.81;;;11.72;100.00
24045;BME280;26257;49.442;8.422;2022-09-21T03:16:10;101347.50;;;11.73;100.00
24045;BME280;26257;49.442;8.422;2022-09-21T03:18:36;101347.78;;;11.86;100.00
24045;BME280;26257;49.442;8.422;2022-09-21T03:21:01;101345.41;;;12.01;100.00
24045;BME280;26257;49.442;8.422;2022-09-21T03:23:28;101342.88;;;12.08;100.00
24045;BME280;26257;49.442;8.422;2022-09-21T03:25:53;101339.25;;;12.03;100.00
24045;BME280;26257;49.442;8.422;2022-09-21T03:28:20;101345.19;;;11.89;100.00
24045;BME280;26257;49.442;8.422;2022-09-21T03:30:48;101346.31;;;12.03;100.00
24045;BME280;26257;49.442;8.422;2022-09-21T03:33:14;101347.47;;;12.17;100.00
24045;BME280;26257;49.442;8.422;2022-09-21T03:35:43;101356.06;;;12.04;100.00
24045;BME280;26257;49.442;8.422;2022-09-21T03:38:09;101353.41;;;12.05;100.00
24045;BME280;26257;49.442;8.422;2022-09-21T03:40:34;101361.22;;;11.98;100.00
24045;BME280;26257;49.442;8.422;2022-09-21T03:43:00;101363.81;;;11.95;100.00
24045;BME280;26257;49.442;8.422;2022-09-21T03:45:26;101356.00;;;12.01;100.00
24045;BME280;26257;49.442;8.422;2022-09-21T03:47:57;101347.19;;;12.02;100.00
24045;BME280;26257;49.442;8.422;2022-09-21T03:50:26;101355.25;;;11.64;100.00
24045;BME280;26257;49.442;8.422;2022-09-21T03:52:52;101353.50;;;11.65;100.00
24045;BME280;26257;49.442;8.422;2022-09-21T03:55:18;101367.44;;;11.56;100.00
24045;BME280;26257;49.442;8.422;2022-09-21T03:57:44;101359.81;;;11.70;100.00
24045;BME280;26257;49.442;8.422;2022-09-21T04:00:10;101365.63;;;11.55;100.00
24045;BME280;26257;49.442;8.422;2022-09-21T04:02:37;101366.25;;;11.83;100.00
24045;BME280;26257;49.442;8.422;2022-09-21T04:05:05;101364.13;;;11.66;100.00
24045;BME280;26257;49.442;8.422;2022-09-21T04:07:32;101365.28;;;11.79;100.00
24045;BME280;26257;49.442;8.422;2022-09-21T04:10:03;101350.56;;;11.95;100.00
24045;BME280;26257;49.442;8.422;2022-09-21T04:12:32;101362.47;;;12.18;100.00
24045;BME280;26257;49.442;8.422;2022-09-21T04:15:00;101366.09;;;12.21;100.00
24045;BME280;26257;49.442;8.422;2022-09-21T04:17:31;101360.78;;;12.20;100.00
24045;BME280;26257;49.442;8.422;2022-09-21T04:19:56;101371.31;;;12.17;100.00
24045;BME280;26257;49.442;8.422;2022-09-21T04:22:22;101374.09;;;12.26;100.00
24045;BME280;26257;49.442;8.422;2022-09-21T04:24:49;101364.19;;;12.14;100.00
24045;BME280;26257;49.442;8.422;2022-09-21T04:27:14;101364.84;;;12.01;100.00
24045;BME280;26257;49.442;8.422;2022-09-21T04:29:40;101373.38;;;11.87;100.00
24045;BME280;26257;49.442;8.422;2022-09-21T04:32:07;101373.69;;;12.02;100.00
24045;BME280;26257;49.442;8.422;2022-09-21T04:34:32;101373.97;;;12.17;100.00
24045;BME280;26257;49.442;8.422;2022-09-21T04:36:58;101378.00;;;11.98;100.00
24045;BME280;26257;49.442;8.422;2022-09-21T04:39:25;101373.84;;;12.11;100.00
24045;BME280;26257;49.442;8.422;2022-09-21T04:41:50;101381.56;;;11.99;100.00
24045;BME280;26257;49.442;8.422;2022-09-21T04:44:15;101380.59;;;11.94;100.00
24045;BME280;26257;49.442;8.422;2022-09-21T04:46:43;101387.63;;;11.93;100.00
24045;BME280;26257;49.442;8.422;2022-09-21T04:49:09;101385.69;;;11.85;100.00
24045;BME280;26257;49.442;8.422;2022-09-21T04:51:35;101394.47;;;11.84;100.00
24045;BME280;26257;49.442;8.422;2022-09-21T04:54:01;101389.38;;;11.93;100.00
24045;BME280;26257;49.442;8.422;2022-09-21T04:56:26;101387.78;;;12.01;100.00
24045;BME280;26257;49.442;8.422;2022-09-21T04:58:52;101392.94;;;11.93;100.00
24045;BME280;26257;49.442;8.422;2022-09-21T05:01:17;101393.81;;;11.94;100.00
24045;BME280;26257;49.442;8.422;2022-09-21T05:03:42;101394.59;;;11.90;100.00
24045;BME280;26257;49.442;8.422;2022-09-21T05:06:08;101404.91;;;11.74;100.00
24045;BME280;26257;49.442;8.422;2022-09-21T05:08:37;101402.38;;;11.81;100.00
24045;BME280;26257;49.442;8.422;2022-09-21T05:11:21;101405.97;;;11.84;100.00
24045;BME280;26257;49.442;8.422;2022-09-21T05:13:47;101408.53;;;11.80;100.00
24045;BME280;26257;49.442;8.422;2022-09-21T05:16:14;101409.28;;;11.74;100.00
24045;BME280;26257;49.442;8.422;2022-09-21T05:18:39;101409.28;;;11.74;100.00
24045;BME280;26257;49.442;8.422;2022-09-21T05:21:05;101411.13;;;11.36;100.00
24045;BME280;26257;49.442;8.422;2022-09-21T05:23:32;101422.28;;;11.25;100.00
24045;BME280;26257;49.442;8.422;2022-09-21T05:25:58;101416.69;;;11.11;100.00
24045;BME280;26257;49.442;8.422;2022-09-21T05:28:24;101417.06;;;11.26;100.00
24045;BME280;26257;49.442;8.422;2022-09-21T05:33:49;101416.34;;;11.33;100.00
24045;BME280;26257;49.442;8.422;2022-09-21T05:39:03;101421.78;;;11.39;100.00
24045;BME280;26257;49.442;8.422;2022-09-21T05:41:29;101415.91;;;11.55;100.00
24045;BME280;26257;49.442;8.422;2022-09-21T05:43:55;101425.94;;;11.68;100.00
24045;BME280;26257;49.442;8.422;2022-09-21T05:54:47;101438.09;;;12.02;100.00
24045;BME280;26257;49.442;8.422;2022-09-21T06:00:17;101430.44;;;12.16;100.00
24045;BME280;26257;49.442;8.422;2022-09-21T06:05:27;101436.09;;;12.34;100.00
24045;BME280;26257;49.442;8.422;2022-09-21T06:07:52;101435.38;;;12.43;100.00
24045;BME280;26257;49.442;8.422;2022-09-21T06:10:18;101438.28;;;12.56;100.00
24045;BME280;26257;49.442;8.422;2022-09-21T06:12:43;101436.91;;;12.31;100.00
24045;BME280;26257;49.442;8.422;2022-09-21T06:15:13;101441.25;;;12.28;100.00
24045;BME280;26257;49.442;8.422;2022-09-21T06:17:40;101436.66;;;12.64;100.00
24045;BME280;26257;49.442;8.422;2022-09-21T06:20:06;101442.78;;;12.62;100.00
24045;BME280;26257;49.442;8.422;2022-09-21T06:22:32;101441.44;;;12.88;100.00
24045;BME280;26257;49.442;8.422;2022-09-21T06:24:57;101440.63;;;12.92;100.00
24045;BME280;26257;49.442;8.422;2022-09-21T06:27:23;101435.44;;;12.99;100.00
24045;BME280;26257;49.442;8.422;2022-09-21T06:29:48;101447.16;;;13.11;100.00
24045;BME280;26257;49.442;8.422;2022-09-21T06:32:14;101448.06;;;13.13;100.00
24045;BME280;26257;49.442;8.422;2022-09-21T06:34:39;101451.22;;;12.90;100.00
24045;BME280;26257;49.442;8.422;2022-09-21T06:37:04;101440.94;;;13.09;100.00
24045;BME280;26257;49.442;8.422;2022-09-21T06:39:30;101442.31;;;13.41;100.00
24045;BME280;26257;49.442;8.422;2022-09-21T06:41:55;101451.59;;;13.12;100.00
24045;BME280;26257;49.442;8.422;2022-09-21T06:44:21;101448.25;;;13.23;100.00
24045;BME280;26257;49.442;8.422;2022-09-21T06:46:47;101454.44;;;13.24;100.00
24045;BME280;26257;49.442;8.422;2022-09-21T06:49:12;101448.41;;;13.34;100.00
24045;BME280;26257;49.442;8.422;2022-09-21T06:51:37;101454.03;;;12.99;100.00
24045;BME280;26257;49.442;8.422;2022-09-21T06:54:03;101456.66;;;13.55;100.00
24045;BME280;26257;49.442;8.422;2022-09-21T06:56:29;101460.19;;;13.52;100.00
24045;BME280;26257;49.442;8.422;2022-09-21T06:58:55;101461.03;;;13.50;100.00
24045;BME280;26257;49.442;8.422;2022-09-21T07:01:20;101464.03;;;13.76;100.00
24045;BME280;26257;49.442;8.422;2022-09-21T07:03:48;101457.19;;;13.96;100.00
24045;BME280;26257;49.442;8.422;2022-09-21T07:06:15;101461.66;;;13.98;100.00
24045;BME280;26257;49.442;8.422;2022-09-21T07:08:41;101460.84;;;14.02;100.00
24045;BME280;26257;49.442;8.422;2022-09-21T07:11:09;101461.78;;;14.10;100.00
24045;BME280;26257;49.442;8.422;2022-09-21T07:13:35;101454.16;;;14.38;100.00
24045;BME280;26257;49.442;8.422;2022-09-21T07:16:05;101451.28;;;14.19;100.00
24045;BME280;26257;49.442;8.422;2022-09-21T07:18:32;101455.75;;;14.23;100.00
24045;BME280;26257;49.442;8.422;2022-09-21T07:21:05;101458.41;;;14.23;100.00
24045;BME280;26257;49.442;8.422;2022-09-21T07:23:31;101455.66;;;14.14;100.00
24045;BME280;26257;49.442;8.422;2022-09-21T07:26:00;101459.91;;;13.97;100.00
24045;BME280;26257;49.442;8.422;2022-09-21T07:28:26;101460.94;;;14.11;100.00
24045;BME280;26257;49.442;8.422;2022-09-21T07:30:51;101463.63;;;14.13;100.00
24045;BME280;26257;49.442;8.422;2022-09-21T07:33:17;101469.25;;;14.42;100.00
24045;BME280;26257;49.442;8.422;2022-09-21T07:35:50;101465.75;;;14.43;100.00
24045;BME280;26257;49.442;8.422;2022-09-21T07:38:15;101472.75;;;14.35;100.00
24045;BME280;26257;49.442;8.422;2022-09-21T07:40:41;101468.44;;;14.46;100.00
24045;BME280;26257;49.442;8.422;2022-09-21T07:43:06;101470.50;;;14.72;99.57
24045;BME280;26257;49.442;8.422;2022-09-21T07:45:31;101460.03;;;14.94;96.15
24045;BME280;26257;49.442;8.422;2022-09-21T07:48:02;101458.31;;;15.05;95.57
24045;BME280;26257;49.442;8.422;2022-09-21T07:50:28;101457.22;;;14.77;95.42
24045;BME280;26257;49.442;8.422;2022-09-21T07:52:53;101452.97;;;14.99;96.45
24045;BME280;26257;49.442;8.422;2022-09-21T07:55:19;101452.28;;;15.25;94.77
24045;BME280;26257;49.442;8.422;2022-09-21T07:57:44;101456.50;;;14.99;95.88
24045;BME280;26257;49.442;8.422;2022-09-21T08:00:28;101461.06;;;15.09;94.87
24045;BME280;26257;49.442;8.422;2022-09-21T08:02:57;101461.03;;;15.12;94.90
24045;BME280;26257;49.442;8.422;2022-09-21T08:05:22;101461.75;;;14.87;96.19
24045;BME280;26257;49.442;8.422;2022-09-21T08:07:48;101454.94;;;15.24;95.28
24045;BME280;26257;49.442;8.422;2022-09-21T08:10:13;101451.34;;;15.20;93.83
24045;BME280;26257;49.442;8.422;2022-09-21T08:12:40;101454.16;;;15.35;93.74
24045;BME280;26257;49.442;8.422;2022-09-21T08:15:08;101458.75;;;15.56;91.14
24045;BME280;26257;49.442;8.422;2022-09-21T08:17:35;101457.84;;;15.62;91.65
24045;BME280;26257;49.442;8.422;2022-09-21T08:20:02;101456.13;;;15.67;90.99
24045;BME280;26257;49.442;8.422;2022-09-21T08:22:28;101448.19;;;15.76;89.53
24045;BME280;26257;49.442;8.422;2022-09-21T08:24:53;101444.78;;;16.13;86.83
24045;BME280;26257;49.442;8.422;2022-09-21T08:27:20;101435.78;;;15.93;85.51
24045;BME280;26257;49.442;8.422;2022-09-21T08:29:48;101455.19;;;15.62;90.01
24045;BME280;26257;49.442;8.422;2022-09-21T08:32:13;101458.13;;;16.16;88.52
24045;BME280;26257;49.442;8.422;2022-09-21T08:34:38;101445.75;;;16.42;86.15
24045;BME280;26257;49.442;8.422;2022-09-21T08:37:04;101447.50;;;16.43;87.58
24045;BME280;26257;49.442;8.422;2022-09-21T08:39:29;101446.63;;;16.40;84.82
24045;BME280;26257;49.442;8.422;2022-09-21T08:44:54;101445.78;;;16.54;81.12
24045;BME280;26257;49.442;8.422;2022-09-21T08:47:31;101451.09;;;16.42;79.56
24045;BME280;26257;49.442;8.422;2022-09-21T08:50:03;101444.03;;;16.78;76.68
24045;BME280;26257;49.442;8.422;2022-09-21T09:17:26;101420.81;;;17.58;60.90
24045;BME280;26257;49.442;8.422;2022-09-21T09:20:06;101413.59;;;17.78;61.41
24045;BME280;26257;49.442;8.422;2022-09-21T09:22:45;101411.94;;;17.56;59.22
24045;BME280;26257;49.442;8.422;2022-09-21T09:25:21;101408.16;;;18.03;60.01
24045;BME280;26257;49.442;8.422;2022-09-21T09:27:50;101412.44;;;18.31;58.88
24045;BME280;26257;49.442;8.422;2022-09-21T09:37:41;101402.41;;;18.69;54.49
24045;BME280;26257;49.442;8.422;2022-09-21T09:40:07;101403.97;;;18.94;54.09
24045;BME280;26257;49.442;8.422;2022-09-21T09:45:30;101389.47;;;20.57;50.32
24045;BME280;26257;49.442;8.422;2022-09-21T09:50:35;101377.75;;;22.41;46.88
24045;BME280;26257;49.442;8.422;2022-09-21T09:53:23;101382.16;;;23.16;42.69
24045;BME280;26257;49.442;8.422;2022-09-21T09:55:54;101364.44;;;24.01;41.90
24045;BME280;26257;49.442;8.422;2022-09-21T09:58:38;101369.97;;;25.06;36.89
24045;BME280;26257;49.442;8.422;2022-09-21T10:01:06;101357.44;;;26.01;36.08
24045;BME280;26257;49.442;8.422;2022-09-21T10:03:32;101360.44;;;25.47;36.79
24045;BME280;26257;49.442;8.422;2022-09-21T10:05:57;101352.81;;;26.04;35.40
24045;BME280;26257;49.442;8.422;2022-09-21T10:11:00;101347.41;;;27.90;33.16
24045;BME280;26257;49.442;8.422;2022-09-21T10:13:32;101348.91;;;27.97;32.15
24045;BME280;26257;49.442;8.422;2022-09-21T10:16:01;101346.28;;;28.33;31.16
24045;BME280;26257;49.442;8.422;2022-09-21T10:18:38;101339.88;;;27.97;31.62
24045;BME280;26257;49.442;8.422;2022-09-21T10:23:55;101344.53;;;27.75;31.66
24045;BME280;26257;49.442;8.422;2022-09-21T10:26:21;101334.50;;;27.95;31.46
24045;BME280;26257;49.442;8.422;2022-09-21T10:32:16;101325.00;;;30.27;28.57
24045;BME280;26257;49.442;8.422;2022-09-21T10:35:13;101329.25;;;28.65;30.95
24045;BME280;26257;49.442;8.422;2022-09-21T10:37:41;101324.44;;;30.67;26.52
24045;BME280;26257;49.442;8.422;2022-09-21T10:42:42;101329.44;;;29.31;29.51
24045;BME280;26257;49.442;8.422;2022-09-21T10:45:19;101324.31;;;30.39;27.60
24045;BME280;26257;49.442;8.422;2022-09-21T10:47:48;101313.38;;;31.72;25.29
24045;BME280;26257;49.442;8.422;2022-09-21T10:50:29;101317.69;;;29.63;27.17
24045;BME280;26257;49.442;8.422;2022-09-21T10:52:59;101313.28;;;31.01;26.38
24045;BME280;26257;49.442;8.422;2022-09-21T10:55:28;101314.69;;;29.85;26.13
24045;BME280;26257;49.442;8.422;2022-09-21T10:57:54;101307.88;;;31.86;25.98
24045;BME280;26257;49.442;8.422;2022-09-21T11:02:45;101310.72;;;32.93;23.79
24045;BME280;26257;49.442;8.422;2022-09-21T11:07:49;101315.25;;;29.74;26.00
24045;BME280;26257;49.442;8.422;2022-09-21T11:13:08;101316.59;;;29.50;27.78
24045;BME280;26257;49.442;8.422;2022-09-21T11:15:48;101314.53;;;28.87;27.86
24045;BME280;26257;49.442;8.422;2022-09-21T11:18:19;101307.66;;;30.28;26.17
24045;BME280;26257;49.442;8.422;2022-09-21T11:20:57;101298.88;;;32.26;24.63
24045;BME280;26257;49.442;8.422;2022-09-21T11:23:51;101293.59;;;33.41;23.29
24045;BME280;26257;49.442;8.422;2022-09-21T11:26:29;101295.09;;;32.42;23.39
24045;BME280;26257;49.442;8.422;2022-09-21T11:29:16;101292.47;;;32.40;23.06
24045;BME280;26257;49.442;8.422;2022-09-21T11:31:53;101287.22;;;33.53;23.11
24045;BME280;26257;49.442;8.422;2022-09-21T11:39:58;101302.31;;;28.42;28.09
24045;BME280;26257;49.442;8.422;2022-09-21T11:48:04;101287.81;;;29.12;27.97
24045;BME280;26257;49.442;8.422;2022-09-21T11:50:54;101274.06;;;32.29;23.29
24045;BME280;26257;49.442;8.422;2022-09-21T12:01:47;101269.94;;;33.78;22.11
24045;BME280;26257;49.442;8.422;2022-09-21T12:12:53;101259.84;;;33.53;22.83
24045;BME280;26257;49.442;8.422;2022-09-21T12:15:47;101252.38;;;33.81;22.32
24045;BME280;26257;49.442;8.422;2022-09-21T12:23:42;101256.09;;;32.25;23.21
24045;BME280;26257;49.442;8.422;2022-09-21T12:26:10;101250.09;;;30.03;26.23
24045;BME280;26257;49.442;8.422;2022-09-21T12:29:01;101254.31;;;29.92;25.40
24045;BME280;26257;49.442;8.422;2022-09-21T12:31:37;101243.06;;;32.02;24.23
24045;BME280;26257;49.442;8.422;2022-09-21T12:34:16;101240.31;;;32.16;23.84
24045;BME280;26257;49.442;8.422;2022-09-21T12:37:03;101236.41;;;33.62;21.90
24045;BME280;26257;49.442;8.422;2022-09-21T12:39:41;101239.47;;;33.07;22.85
24045;BME280;26257;49.442;8.422;2022-09-21T12:48:10;101237.03;;;33.03;22.29
24045;BME280;26257;49.442;8.422;2022-09-21T12:53:34;101230.97;;;34.69;19.31
24045;BME280;26257;49.442;8.422;2022-09-21T12:56:42;101231.56;;;34.73;20.05
24045;BME280;26257;49.442;8.422;2022-09-21T12:59:33;101247.22;;;29.07;25.14
24045;BME280;26257;49.442;8.422;2022-09-21T13:13:03;101215.75;;;32.02;21.79
24045;BME280;26257;49.442;8.422;2022-09-21T13:15:41;101233.63;;;30.35;24.32
24045;BME280;26257;49.442;8.422;2022-09-21T13:18:26;101233.16;;;30.43;23.53
24045;BME280;26257;49.442;8.422;2022-09-21T13:20:53;101204.88;;;31.32;22.40
24045;BME280;26257;49.442;8.422;2022-09-21T13:23:56;101203.91;;;31.18;23.23
24045;BME280;26257;49.442;8.422;2022-09-21T13:26:43;101199.94;;;33.24;21.21
24045;BME280;26257;49.442;8.422;2022-09-21T13:31:54;101188.44;;;34.51;20.24
24045;BME280;26257;49.442;8.422;2022-09-21T13:34:39;101196.13;;;33.14;21.13
24045;BME280;26257;49.442;8.422;2022-09-21T13:37:26;101194.53;;;33.60;20.75
24045;BME280;26257;49.442;8.422;2022-09-21T13:47:44;101204.34;;;26.77;26.68
24045;BME280;26257;49.442;8.422;2022-09-21T13:52:55;101204.34;;;26.96;27.24
24045;BME280;26257;49.442;8.422;2022-09-21T13:55:30;101205.91;;;25.54;29.40
24045;BME280;26257;49.442;8.422;2022-09-21T13:58:04;101196.41;;;24.96;30.64
24045;BME280;26257;49.442;8.422;2022-09-21T14:03:05;101193.88;;;24.92;30.40
24045;BME280;26257;49.442;8.422;2022-09-21T14:05:47;101193.47;;;24.79;30.52
24045;BME280;26257;49.442;8.422;2022-09-21T14:10:55;101193.56;;;23.42;32.58
24045;BME280;26257;49.442;8.422;2022-09-21T14:18:59;101183.41;;;25.29;30.60
24045;BME280;26257;49.442;8.422;2022-09-21T14:21:24;101180.66;;;25.31;30.29
24045;BME280;26257;49.442;8.422;2022-09-21T14:24:20;101173.63;;;26.77;27.06
24045;BME280;26257;49.442;8.422;2022-09-21T14:32:45;101168.34;;;29.71;23.36
24045;BME280;26257;49.442;8.422;2022-09-21T14:35:18;101161.59;;;30.39;22.46
24045;BME280;26257;49.442;8.422;2022-09-21T14:37:58;101168.78;;;30.40;23.37
24045;BME280;26257;49.442;8.422;2022-09-21T14:40:28;101173.44;;;28.12;25.98
24045;BME280;26257;49.442;8.422;2022-09-21T14:42:57;101176.28;;;26.36;27.65
24045;BME280;26257;49.442;8.422;2022-09-21T14:49:06;101174.41;;;26.38;28.13
24045;BME280;26257;49.442;8.422;2022-09-21T14:52:02;101173.59;;;24.80;30.32
24045;BME280;26257;49.442;8.422;2022-09-21T15:02:23;101153.50;;;24.38;32.61
24045;BME280;26257;49.442;8.422;2022-09-21T15:11:07;101127.56;;;28.57;25.68
24045;BME280;26257;49.442;8.422;2022-09-21T15:14:06;101123.38;;;29.00;24.98
24045;BME280;26257;49.442;8.422;2022-09-21T15:16:42;101113.19;;;30.43;22.25
24045;BME280;26257;49.442;8.422;2022-09-21T15:19:12;101121.94;;;29.57;23.16
24045;BME280;26257;49.442;8.422;2022-09-21T15:22:30;101123.56;;;29.46;23.14
24045;BME280;26257;49.442;8.422;2022-09-21T15:24:32;101121.94;;;29.73;23.44
24045;BME280;26257;49.442;8.422;2022-09-21T15:27:06;101116.19;;;30.09;22.31
24045;BME280;26257;49.442;8.422;2022-09-21T15:29:35;101113.94;;;29.85;22.65
24045;BME280;26257;49.442;8.422;2022-09-21T15:32:02;101111.94;;;29.73;22.17
24045;BME280;26257;49.442;8.422;2022-09-21T15:34:29;101113.09;;;29.69;22.95
24045;BME280;26257;49.442;8.422;2022-09-21T15:37:05;101111.44;;;29.51;22.16
24045;BME280;26257;49.442;8.422;2022-09-21T15:39:31;101115.38;;;29.46;22.51
24045;BME280;26257;49.442;8.422;2022-09-21T15:44:32;101113.84;;;28.26;23.25
24045;BME280;26257;49.442;8.422;2022-09-21T15:46:59;101110.28;;;28.41;23.68
24045;BME280;26257;49.442;8.422;2022-09-21T15:49:28;101117.31;;;27.58;24.20
24045;BME280;26257;49.442;8.422;2022-09-21T15:51:55;101119.84;;;26.66;25.21
24045;BME280;26257;49.442;8.422;2022-09-21T15:54:35;101119.78;;;27.25;24.53
24045;BME280;26257;49.442;8.422;2022-09-21T15:59:47;101124.56;;;26.43;25.46
24045;BME280;26257;49.442;8.422;2022-09-21T16:02:20;101130.31;;;25.27;27.24
24045;BME280;26257;49.442;8.422;2022-09-21T16:04:47;101128.22;;;26.21;25.68
24045;BME280;26257;49.442;8.422;2022-09-21T16:07:35;101119.59;;;27.11;25.03
24045;BME280;26257;49.442;8.422;2022-09-21T16:10:37;101129.38;;;26.56;25.75
24045;BME280;26257;49.442;8.422;2022-09-21T16:13:24;101130.84;;;26.23;26.45
24045;BME280;26257;49.442;8.422;2022-09-21T16:16:09;101143.53;;;25.34;28.57
24045;BME280;26257;49.442;8.422;2022-09-21T16:21:15;101143.00;;;24.03;29.96
24045;BME280;26257;49.442;8.422;2022-09-21T16:23:43;101143.13;;;24.26;29.70
24045;BME280;26257;49.442;8.422;2022-09-21T16:26:19;101147.69;;;24.73;28.90
24045;BME280;26257;49.442;8.422;2022-09-21T16:28:46;101149.06;;;24.35;29.11
24045;BME280;26257;49.442;8.422;2022-09-21T16:31:34;101153.72;;;24.06;29.54
24045;BME280;26257;49.442;8.422;2022-09-21T16:34:01;101148.09;;;23.59;31.34
24045;BME280;26257;49.442;8.422;2022-09-21T16:38:56;101153.38;;;23.04;31.47
24045;BME280;26257;49.442;8.422;2022-09-21T16:42:09;101162.28;;;22.44;33.04
24045;BME280;26257;49.442;8.422;2022-09-21T16:44:16;101152.66;;;22.99;32.32
24045;BME280;26257;49.442;8.422;2022-09-21T16:47:09;101162.63;;;22.64;32.31
24045;BME280;26257;49.442;8.422;2022-09-21T16:49:36;101164.47;;;21.58;34.50
24045;BME280;26257;49.442;8.422;2022-09-21T16:52:02;101174.72;;;21.79;34.13
24045;BME280;26257;49.442;8.422;2022-09-21T16:54:28;101170.56;;;21.65;34.35
24045;BME280;26257;49.442;8.422;2022-09-21T16:56:56;101169.13;;;21.50;34.69
24045;BME280;26257;49.442;8.422;2022-09-21T16:59:22;101173.66;;;21.08;34.85
24045;BME280;26257;49.442;8.422;2022-09-21T17:01:50;101173.44;;;21.17;34.47
24045;BME280;26257;49.442;8.422;2022-09-21T17:04:21;101175.34;;;21.12;34.16
24045;BME280;26257;49.442;8.422;2022-09-21T17:06:48;101174.75;;;21.39;33.65
24045;BME280;26257;49.442;8.422;2022-09-21T17:09:20;101178.56;;;20.86;34.77
24045;BME280;26257;49.442;8.422;2022-09-21T17:11:46;101173.75;;;20.59;34.72